SLAS/ASC METAR and TAF weather

Enter ICAO airport designator
Station Type Date Time Source
SLAS METAR 2022/05/10 14:00 UTC NOAA

SLAS 101400Z 18008KT 9999 NSC 25/20 Q1018


Station Type Date Time Source
SLAS Decoded METAR 2022/05/10 14:00 UTC NOAA

Ascencion De Guarayos, Bolivia (SLAS) 15-43S 063-06W
May 10, 2022 - 10:00 AM EDT / 2022.05.10 1400 UTC
Wind: from the S (180 degrees) at 9 MPH (8 KT):0
Visibility: greater than 7 mile(s):0
Temperature: 77 F (25 C)
Dew Point: 68 F (20 C)
Relative Humidity: 73%
Pressure (altimeter): 30.06 in. Hg (1018 hPa)
ob: SLAS 101400Z 18008KT 9999 NSC 25/20 Q1018
cycle: 14

Station Type Date Time Source
SLAS TAF UTC NOAA

Error!

Example: see airport list